Time;durP1;ratioP1;P1;durP2;ratioP2;P2;SDS_P1;SDS_P2;PMS_P1;PMS_P2;Temp;Humidity;BMP_temperature;BMP_pressure;BME280_temperature;BME280_humidity;BME280_pressure;Samples;Min_cycle;Max_cycle;Signal;HPM_P1;HPM_P2
2022/04/26 03:36:51;;;;;;;;;;;7.80;99.90;;;;;;2603619;54;19938;31
2022/04/26 03:39:44;;;;;;;;;;;7.80;99.90;;;;;;2622192;46;19934;31
2022/04/26 03:42:54;;;;;;;;;;;7.80;99.90;;;;;;2773764;31;21013;31
2022/04/26 03:45:49;;;;;;;;;;;7.80;99.90;;;;;;2622089;46;19935;31
2022/04/26 03:51:04;;;;;;;;;;;7.80;99.90;;;;;;2607852;46;20818;31
2022/04/26 03:53:46;;;;;;;;;;;7.80;99.90;;;;;;2603428;54;20026;31
2022/04/26 03:56:28;;;;;;;;;;;7.80;99.90;;;;;;2622159;46;20052;31
2022/04/26 03:59:25;;;;;;;;;;;;;;;;;;;;;
2022/04/26 04:02:33;;;;;;;;;;;7.80;99.90;;;;;;2603349;54;20017;31
2022/04/26 04:05:19;;;;;;;;;;;7.80;99.90;;;;;;2621991;46;20792;31
2022/04/26 04:08:06;;;;;;;;;;;7.80;99.90;;;;;;2603514;54;20017;31
2022/04/26 04:13:38;;;;;;;;;;;7.80;99.90;;;;;;2603034;54;20654;31
2022/04/26 04:16:24;;;;;;;;;;;7.80;99.90;;;;;;2603460;54;20493;31
2022/04/26 04:25:26;;;;;;;;;;;7.80;99.90;;;;;;2603399;54;19934;31
2022/04/26 04:30:58;;;;;;;;;;;7.80;99.90;;;;;;2603381;54;19941;31
2022/04/26 04:33:49;;;;;;;;;;;;;;;;;;;;;
2022/04/26 04:36:34;;;;;;;;;;;8.00;99.90;;;;;;2603255;54;20007;31
2022/04/26 04:39:20;;;;;;;;;;;7.80;99.90;;;;;;2603543;54;19935;31
2022/04/26 04:42:12;;;;;;;;;;;7.80;99.90;;;;;;2603281;54;20012;31
2022/04/26 04:44:55;;;;;;;;;;;7.80;99.90;;;;;;2603234;54;19934;31
2022/04/26 04:50:27;;;;;;;;;;;7.90;99.90;;;;;;2621899;47;19942;31
2022/04/26 04:53:06;;;;;;;;;;;8.30;99.90;;;;;;2603101;54;19935;31
2022/04/26 04:58:18;;;;;;;;;;;8.00;99.90;;;;;;2621540;47;19950;31
2022/04/26 05:06:21;;;;;;;;;;;8.10;99.90;;;;;;2603967;54;19950;31
2022/04/26 05:09:08;;;;;;;;;;;8.10;99.90;;;;;;2622555;46;19942;31
2022/04/26 05:11:48;;;;;;;;;;;8.20;99.90;;;;;;2622801;46;19954;31
2022/04/26 05:14:32;;;;;;;;;;;8.20;99.90;;;;;;2622441;46;19942;31
2022/04/26 05:17:06;;;;;;;;;;;8.20;99.90;;;;;;2622765;46;20089;31
2022/04/26 05:24:53;;;;;;;;;;;8.90;99.90;;;;;;2622453;46;19935;31
2022/04/26 05:25:33;;;;;;;;;;;8.30;99.90;;;;;;2604209;54;19941;31
2022/04/26 05:28:08;;;;;;;;;;;8.30;99.90;;;;;;2604066;54;20458;31
2022/04/26 05:30:42;;;;;;;;;;;8.30;99.90;;;;;;2604096;54;20839;31
2022/04/26 05:33:17;;;;;;;;;;;8.40;99.90;;;;;;2622785;46;19947;31
2022/04/26 05:35:54;;;;;;;;;;;9.10;99.90;;;;;;2622550;46;19941;31
2022/04/26 05:38:31;;;;;;;;;;;8.40;99.90;;;;;;2774263;31;21022;31
2022/04/26 05:41:05;;;;;;;;;;;8.50;99.90;;;;;;2622565;46;19942;31
2022/04/26 05:43:39;;;;;;;;;;;8.50;99.90;;;;;;2604073;54;19993;31
2022/04/26 05:46:14;;;;;;;;;;;8.50;99.90;;;;;;2604057;54;19942;31
2022/04/26 05:48:48;;;;;;;;;;;9.10;99.90;;;;;;2622401;46;19946;31
2022/04/26 05:51:23;;;;;;;;;;;8.60;99.90;;;;;;2603244;54;20046;31
2022/04/26 05:54:01;;;;;;;;;;;8.60;99.90;;;;;;2604205;54;19935;31
2022/04/26 05:56:35;;;;;;;;;;;9.30;99.90;;;;;;2612098;46;20021;31
2022/04/26 05:59:11;;;;;;;;;;;8.70;99.90;;;;;;2603328;54;19947;31
2022/04/26 06:01:46;;;;;;;;;;;9.40;99.90;;;;;;2604036;54;20668;31
2022/04/26 06:04:23;;;;;;;;;;;8.80;99.90;;;;;;2622489;46;19965;31
2022/04/26 06:07:02;;;;;;;;;;;8.80;99.90;;;;;;2604219;54;20739;31
2022/04/26 06:09:40;;;;;;;;;;;8.80;99.90;;;;;;2603130;54;20753;31
2022/04/26 06:12:17;;;;;;;;;;;8.80;99.90;;;;;;2614471;46;19943;31
2022/04/26 06:14:51;;;;;;;;;;;8.80;99.90;;;;;;2622305;46;19949;31
2022/04/26 06:17:32;;;;;;;;;;;8.90;99.90;;;;;;2604075;54;19941;31
2022/04/26 06:20:09;;;;;;;;;;;8.80;99.90;;;;;;2622462;46;19942;31
2022/04/26 06:22:47;;;;;;;;;;;8.90;99.90;;;;;;2603632;54;20689;31
2022/04/26 06:25:24;;;;;;;;;;;8.90;99.90;;;;;;2603085;54;20811;31
2022/04/26 06:28:03;;;;;;;;;;;9.00;99.90;;;;;;2622418;46;19943;31
2022/04/26 06:30:40;;;;;;;;;;;9.50;99.90;;;;;;2613760;46;19957;31
2022/04/26 06:33:14;;;;;;;;;;;9.20;99.90;;;;;;2603756;54;19934;31
2022/04/26 06:35:55;;;;;;;;;;;9.40;99.90;;;;;;2603050;54;20835;31
2022/04/26 06:38:30;;;;;;;;;;;9.40;99.90;;;;;;2621869;46;19970;31
2022/04/26 06:41:10;;;;;;;;;;;9.50;99.90;;;;;;2603935;54;21423;31
2022/04/26 06:43:50;;;;;;;;;;;9.50;99.90;;;;;;2603796;54;19934;31
2022/04/26 06:46:26;;;;;;;;;;;9.70;99.90;;;;;;2608009;46;20594;31
2022/04/26 06:49:05;;;;;;;;;;;9.90;99.90;;;;;;2603414;54;19993;31
2022/04/26 06:54:31;;;;;;;;;;;10.60;99.90;;;;;;2603684;54;19960;31
2022/04/26 06:57:06;;;;;;;;;;;10.90;99.90;;;;;;2603944;54;19942;31
2022/04/26 06:59:45;;;;;;;;;;;11.00;99.90;;;;;;2603220;54;20773;31
2022/04/26 07:02:22;;;;;;;;;;;11.10;99.90;;;;;;2714142;39;20429;31
2022/04/26 07:04:57;;;;;;;;;;;11.10;99.90;;;;;;2603842;54;19956;31
2022/04/26 07:07:36;;;;;;;;;;;11.10;99.90;;;;;;2603039;54;19942;31
2022/04/26 07:10:12;;;;;;;;;;;11.10;99.90;;;;;;2603153;54;20742;31
2022/04/26 07:12:50;;;;;;;;;;;11.20;99.90;;;;;;2702039;39;21215;31
2022/04/26 07:15:39;;;;;;;;;;;11.20;99.90;;;;;;2622283;46;19990;31
2022/04/26 07:18:17;;;;;;;;;;;11.20;99.90;;;;;;2603697;54;19954;31
2022/04/26 07:20:52;;;;;;;;;;;11.10;99.90;;;;;;2603619;54;20718;31
2022/04/26 07:23:30;;;;;;;;;;;11.20;99.90;;;;;;2603231;54;19947;31
2022/04/26 07:26:07;;;;;;;;;;;11.30;99.90;;;;;;2702427;39;20385;31
2022/04/26 07:28:55;;;;;;;;;;;11.40;99.90;;;;;;2614790;46;19958;31
2022/04/26 07:37:13;;;;;;;;;;;11.80;99.90;;;;;;2603642;54;19935;31
2022/04/26 07:39:47;;;;;;;;;;;12.00;99.90;;;;;;2603682;54;19935;31
2022/04/26 07:42:35;;;;;;;;;;;12.20;99.90;;;;;;2603542;54;20025;31
2022/04/26 07:45:13;;;;;;;;;;;12.40;99.90;;;;;;2607595;46;19946;31
2022/04/26 07:47:53;;;;;;;;;;;12.70;99.90;;;;;;2621832;46;19947;31
2022/04/26 07:50:28;;;;;;;;;;;13.10;99.90;;;;;;2622152;46;20022;31
2022/04/26 07:53:06;;;;;;;;;;;13.50;99.90;;;;;;2603621;54;19989;31
2022/04/26 07:55:47;;;;;;;;;;;13.60;99.90;;;;;;2612097;46;19994;31
2022/04/26 07:58:23;;;;;;;;;;;13.60;99.90;;;;;;2602773;54;20636;31
2022/04/26 08:01:01;;;;;;;;;;;13.60;99.90;;;;;;2603406;54;19942;31
2022/04/26 08:03:35;;;;;;;;;;;13.50;99.90;;;;;;2603659;54;20500;31
2022/04/26 08:06:13;;;;;;;;;;;13.50;99.90;;;;;;2603392;54;19942;31
2022/04/26 08:08:53;;;;;;;;;;;13.70;99.90;;;;;;2603478;54;19989;31
2022/04/26 08:11:34;;;;;;;;;;;13.70;99.90;;;;;;2602868;54;19974;31
2022/04/26 08:14:12;;;;;;;;;;;14.00;99.90;;;;;;2603551;54;20827;31
2022/04/26 08:16:52;;;;;;;;;;;14.50;99.90;;;;;;2602849;54;20482;31
2022/04/26 08:19:27;;;;;;;;;;;14.60;99.90;;;;;;2702163;39;20473;31
2022/04/26 08:22:05;;;;;;;;;;;14.90;99.90;;;;;;2603422;54;19979;31
2022/04/26 08:27:30;;;;;;;;;;;15.40;99.90;;;;;;2603320;54;20561;31
2022/04/26 08:30:16;;;;;;;;;;;;;;;;;;;;;
2022/04/26 08:32:54;;;;;;;;;;;15.90;99.90;;;;;;2702038;39;21270;31
2022/04/26 08:38:29;;;;;;;;;;;16.70;99.90;;;;;;2622792;46;19966;31
2022/04/26 08:41:07;;;;;;;;;;;16.90;99.90;;;;;;2603523;54;19942;31
2022/04/26 08:50:59;;;;;;;;;;;17.10;99.90;;;;;;2603452;54;19942;31
2022/04/26 08:52:11;;;;;;;;;;;17.00;99.90;;;;;;2603957;54;20651;31
2022/04/26 08:54:45;;;;;;;;;;;17.30;99.90;;;;;;2604211;54;19934;31
2022/04/26 08:57:24;;;;;;;;;;;17.50;99.90;;;;;;2622786;46;19996;31
2022/04/26 09:00:06;;;;;;;;;;;17.80;99.90;;;;;;2604421;54;20462;31
2022/04/26 09:02:48;;;;;;;;;;;18.00;99.90;;;;;;2603984;54;20013;31
2022/04/26 09:05:24;;;;;;;;;;;18.20;99.90;;;;;;2622618;46;20005;31
2022/04/26 09:08:07;;;;;;;;;;;18.10;99.90;;;;;;2604322;54;20711;31
2022/04/26 09:10:43;;;;;;;;;;;17.90;99.90;;;;;;2603898;54;19992;31
2022/04/26 09:13:23;;;;;;;;;;;17.70;99.90;;;;;;2622654;46;20746;31
2022/04/26 09:15:59;;;;;;;;;;;17.50;99.90;;;;;;2604052;54;20898;31
2022/04/26 09:18:40;;;;;;;;;;;17.60;99.90;;;;;;2604157;54;19935;31
2022/04/26 09:21:15;;;;;;;;;;;17.80;99.90;;;;;;2603994;54;20756;31
2022/04/26 09:23:50;;;;;;;;;;;18.00;99.90;;;;;;2604007;54;20793;31
2022/04/26 09:26:25;;;;;;;;;;;18.00;99.90;;;;;;2603569;54;19993;31
2022/04/26 09:29:03;;;;;;;;;;;17.90;99.90;;;;;;2622278;46;19934;31
2022/04/26 09:31:39;;;;;;;;;;;18.20;99.90;;;;;;2603979;54;20708;31
2022/04/26 09:34:23;;;;;;;;;;;18.30;99.90;;;;;;2622314;46;19941;31
2022/04/26 09:36:59;;;;;;;;;;;18.10;99.90;;;;;;2622399;46;20881;31
2022/04/26 09:39:33;;;;;;;;;;;18.20;99.90;;;;;;2603951;54;19960;31
2022/04/26 09:42:31;;;;;;;;;;;18.20;99.90;;;;;;2603993;54;20741;31
2022/04/26 09:45:13;;;;;;;;;;;18.30;99.90;;;;;;2603728;54;20013;31
2022/04/26 09:47:51;;;;;;;;;;;18.40;99.90;;;;;;2603696;54;20787;31
2022/04/26 09:50:25;;;;;;;;;;;18.20;99.90;;;;;;2603300;54;19943;31
2022/04/26 09:53:02;;;;;;;;;;;18.30;99.90;;;;;;2622583;46;19938;31
2022/04/26 09:55:38;;;;;;;;;;;18.50;99.90;;;;;;2622808;46;19943;31
2022/04/26 09:58:14;;;;;;;;;;;18.60;99.90;;;;;;2603878;54;20026;31
2022/04/26 10:00:52;;;;;;;;;;;18.50;99.90;;;;;;2603964;54;19946;31
2022/04/26 10:03:38;;;;;;;;;;;18.40;99.90;;;;;;2603263;54;19939;31
2022/04/26 10:06:18;;;;;;;;;;;18.20;99.90;;;;;;2603901;54;19934;31
2022/04/26 10:08:55;;;;;;;;;;;17.90;99.90;;;;;;2603912;54;20790;31
2022/04/26 10:11:33;;;;;;;;;;;17.50;99.90;;;;;;2702533;39;21042;31
2022/04/26 10:14:10;;;;;;;;;;;17.20;99.90;;;;;;2622522;46;20057;31
2022/04/26 10:16:48;;;;;;;;;;;17.00;99.90;;;;;;2615861;46;19950;31
2022/04/26 10:19:31;;;;;;;;;;;17.20;99.90;;;;;;2603181;54;19953;31
2022/04/26 10:22:11;;;;;;;;;;;17.40;99.90;;;;;;2604028;54;20766;31
2022/04/26 10:25:05;;;;;;;;;;;17.30;99.90;;;;;;2603607;54;19938;31
2022/04/26 10:27:41;;;;;;;;;;;17.20;99.90;;;;;;2622525;46;19934;31
2022/04/26 10:30:21;;;;;;;;;;;17.00;99.90;;;;;;2604011;54;19962;31
2022/04/26 10:33:02;;;;;;;;;;;16.80;99.90;;;;;;2603910;54;20751;31
2022/04/26 10:35:43;;;;;;;;;;;16.90;99.90;;;;;;2603779;54;20071;31
2022/04/26 10:41:18;;;;;;;;;;;17.00;99.90;;;;;;2603657;54;19935;31
2022/04/26 10:44:07;;;;;;;;;;;17.00;99.90;;;;;;2603910;54;19989;31
2022/04/26 10:46:41;;;;;;;;;;;17.00;99.90;;;;;;2603800;54;19935;31
2022/04/26 10:49:35;;;;;;;;;;;17.00;99.90;;;;;;2622370;46;19935;31
2022/04/26 10:52:27;;;;;;;;;;;16.90;99.90;;;;;;2603530;54;19946;31
2022/04/26 10:55:11;;;;;;;;;;;16.80;99.90;;;;;;2622434;46;20021;31
2022/04/26 10:57:46;;;;;;;;;;;16.80;99.90;;;;;;2622166;46;20679;31
2022/04/26 11:00:33;;;;;;;;;;;16.80;99.90;;;;;;2603726;54;20765;31
2022/04/26 11:06:10;;;;;;;;;;;17.10;99.90;;;;;;2603215;54;19935;31
2022/04/26 11:09:05;;;;;;;;;;;17.30;99.90;;;;;;2603586;54;20803;31
2022/04/26 11:11:55;;;;;;;;;;;17.40;99.90;;;;;;2619883;46;20821;31
2022/04/26 11:14:33;;;;;;;;;;;17.40;99.90;;;;;;2603687;54;20002;31
2022/04/26 11:17:11;;;;;;;;;;;17.20;99.90;;;;;;2603726;54;19934;31
2022/04/26 11:19:54;;;;;;;;;;;17.20;99.90;;;;;;2622117;46;20009;31
2022/04/26 11:22:35;;;;;;;;;;;17.10;99.90;;;;;;2603085;54;20021;31
2022/04/26 11:28:06;;;;;;;;;;;17.30;99.90;;;;;;2621806;46;19941;31
2022/04/26 11:30:44;;;;;;;;;;;17.50;99.90;;;;;;2603432;54;19941;31
2022/04/26 11:33:23;;;;;;;;;;;17.70;99.90;;;;;;2603391;54;19934;31
2022/04/26 11:35:58;;;;;;;;;;;17.70;99.90;;;;;;2603614;54;19946;31
2022/04/26 11:38:34;;;;;;;;;;;17.80;99.10;;;;;;2603675;54;19942;31
2022/04/26 11:41:12;;;;;;;;;;;17.90;99.90;;;;;;2702076;39;20413;31
2022/04/26 11:43:50;;;;;;;;;;;17.90;95.90;;;;;;2622503;46;19934;31
2022/04/26 11:46:30;;;;;;;;;;;17.70;96.40;;;;;;2603676;54;19987;31
2022/04/26 11:49:11;;;;;;;;;;;17.80;99.90;;;;;;2621851;46;20798;31
2022/04/26 11:51:50;;;;;;;;;;;17.70;99.40;;;;;;2603567;54;19943;31
2022/04/26 11:54:41;;;;;;;;;;;17.60;97.90;;;;;;2603541;54;20798;31
2022/04/26 12:00:55;;;;;;;;;;;17.50;99.90;;;;;;2621668;46;19934;31
2022/04/26 12:03:37;;;;;;;;;;;17.50;99.90;;;;;;2603462;54;20895;31
2022/04/26 12:06:15;;;;;;;;;;;17.40;95.40;;;;;;2602804;54;19942;31
2022/04/26 12:08:50;;;;;;;;;;;17.40;93.00;;;;;;2701910;39;21417;31
2022/04/26 12:11:26;;;;;;;;;;;17.40;94.90;;;;;;2602703;54;19954;31
2022/04/26 12:14:06;;;;;;;;;;;17.50;98.90;;;;;;2621722;46;20009;31
2022/04/26 12:16:43;;;;;;;;;;;17.60;95.00;;;;;;2602661;54;19950;31
2022/04/26 12:19:19;;;;;;;;;;;17.70;99.20;;;;;;2614354;47;19950;31
2022/04/26 12:21:54;;;;;;;;;;;17.80;99.40;;;;;;2602630;54;20706;31
2022/04/26 12:30:12;;;;;;;;;;;17.90;93.60;;;;;;2602681;54;19942;31
2022/04/26 12:32:50;;;;;;;;;;;17.90;96.70;;;;;;2621683;47;20013;31
2022/04/26 12:35:29;;;;;;;;;;;18.00;99.40;;;;;;2603725;54;19943;31
2022/04/26 12:38:08;;;;;;;;;;;17.90;99.60;;;;;;2622115;47;19943;31
2022/04/26 12:40:45;;;;;;;;;;;17.70;98.30;;;;;;2603105;54;20809;31
2022/04/26 12:43:22;;;;;;;;;;;17.50;96.90;;;;;;2603249;54;19935;31
2022/04/26 12:46:01;;;;;;;;;;;17.30;97.70;;;;;;2603342;54;20837;31
2022/04/26 12:54:29;;;;;;;;;;;17.00;98.70;;;;;;2603243;54;20753;31
2022/04/26 12:57:12;;;;;;;;;;;17.00;95.70;;;;;;2603090;54;19935;31
2022/04/26 12:59:48;;;;;;;;;;;17.00;96.30;;;;;;2603217;54;19963;31
2022/04/26 13:02:23;;;;;;;;;;;17.10;96.20;;;;;;2603336;54;19946;31
2022/04/26 13:05:02;;;;;;;;;;;17.20;96.90;;;;;;2622119;47;20726;31
2022/04/26 13:10:13;;;;;;;;;;;17.20;99.60;;;;;;2622067;47;19990;31
2022/04/26 13:12:48;;;;;;;;;;;17.10;97.90;;;;;;2702040;39;20939;31
2022/04/26 13:15:26;;;;;;;;;;;17.00;99.90;;;;;;2603327;54;19961;31
2022/04/26 13:18:03;;;;;;;;;;;17.00;99.90;;;;;;2613040;47;19969;31
2022/04/26 13:20:47;;;;;;;;;;;16.90;99.80;;;;;;2613957;47;19935;31
2022/04/26 13:23:25;;;;;;;;;;;16.80;98.00;;;;;;2604078;54;19935;31
2022/04/26 13:26:10;;;;;;;;;;;16.70;98.30;;;;;;2604335;54;19943;31
2022/04/26 13:28:47;;;;;;;;;;;16.50;96.80;;;;;;2603973;54;19941;31
2022/04/26 13:31:23;;;;;;;;;;;16.40;96.90;;;;;;2702710;39;20375;31
2022/04/26 13:34:00;;;;;;;;;;;16.20;97.90;;;;;;2603651;54;19934;31
2022/04/26 13:36:58;;;;;;;;;;;16.20;98.50;;;;;;2622549;46;19941;31
2022/04/26 13:39:35;;;;;;;;;;;16.10;97.00;;;;;;2622870;46;19941;31
2022/04/26 13:42:24;;;;;;;;;;;16.10;99.00;;;;;;2603871;54;19981;31
2022/04/26 13:44:59;;;;;;;;;;;16.10;99.10;;;;;;2622166;46;20823;31
2022/04/26 13:50:31;;;;;;;;;;;16.10;96.70;;;;;;2622441;46;20773;31
2022/04/26 13:53:09;;;;;;;;;;;16.10;96.90;;;;;;2603626;54;20686;31
2022/04/26 13:55:49;;;;;;;;;;;16.10;95.80;;;;;;2622645;46;20754;31
2022/04/26 13:58:33;;;;;;;;;;;16.00;95.80;;;;;;2603964;54;19998;31
2022/04/26 14:01:16;;;;;;;;;;;16.00;96.30;;;;;;2622684;46;20001;31
2022/04/26 14:03:51;;;;;;;;;;;16.00;95.80;;;;;;2604029;54;19934;31
2022/04/26 14:06:32;;;;;;;;;;;16.10;99.80;;;;;;2606493;46;20009;31
2022/04/26 14:09:07;;;;;;;;;;;16.10;96.30;;;;;;2622373;46;20821;31
2022/04/26 14:11:44;;;;;;;;;;;16.10;96.50;;;;;;2702190;39;21245;31
2022/04/26 14:23:24;;;;;;;;;;;15.80;98.70;;;;;;2622209;46;20005;31
2022/04/26 14:26:07;;;;;;;;;;;15.70;98.10;;;;;;2603751;54;20811;31
2022/04/26 14:28:53;;;;;;;;;;;15.60;99.20;;;;;;2622654;46;19935;31
2022/04/26 14:31:35;;;;;;;;;;;15.60;99.90;;;;;;2621933;46;20784;31
2022/04/26 14:34:13;;;;;;;;;;;15.40;99.90;;;;;;2603016;54;20775;31
2022/04/26 14:37:17;;;;;;;;;;;15.30;99.90;;;;;;2603744;54;20860;31
2022/04/26 14:39:54;;;;;;;;;;;15.20;99.90;;;;;;2603680;54;19935;31
2022/04/26 14:42:31;;;;;;;;;;;15.20;99.90;;;;;;2604025;54;19946;31
2022/04/26 14:45:07;;;;;;;;;;;15.10;99.90;;;;;;2622596;46;20021;31
2022/04/26 14:47:45;;;;;;;;;;;15.10;99.90;;;;;;2603347;54;20976;31
2022/04/26 14:50:26;;;;;;;;;;;15.00;99.90;;;;;;2603957;54;19935;31
2022/04/26 14:58:37;;;;;;;;;;;14.80;99.90;;;;;;2603722;54;19934;31
2022/04/26 15:01:15;;;;;;;;;;;14.70;99.90;;;;;;2603703;54;19942;31
2022/04/26 15:03:58;;;;;;;;;;;14.70;99.90;;;;;;2603166;54;20001;31
2022/04/26 15:06:33;;;;;;;;;;;14.70;99.90;;;;;;2622533;46;19998;31
2022/04/26 15:17:30;;;;;;;;;;;14.60;99.90;;;;;;2603527;54;20787;31
2022/04/26 15:20:08;;;;;;;;;;;14.60;99.90;;;;;;2603880;54;19941;31
2022/04/26 15:22:43;;;;;;;;;;;14.50;99.90;;;;;;2603758;54;19941;31
2022/04/26 15:25:18;;;;;;;;;;;14.40;99.90;;;;;;2622375;46;19942;31
2022/04/26 15:28:05;;;;;;;;;;;14.40;99.90;;;;;;2603685;54;20025;31
2022/04/26 15:30:43;;;;;;;;;;;14.40;99.90;;;;;;2603575;54;19941;31
2022/04/26 15:33:20;;;;;;;;;;;14.40;99.90;;;;;;2603561;54;20813;31
2022/04/26 15:35:59;;;;;;;;;;;14.40;99.90;;;;;;2622432;46;20002;31
2022/04/26 15:38:34;;;;;;;;;;;14.40;99.90;;;;;;2603576;54;19941;31
2022/04/26 15:41:09;;;;;;;;;;;14.50;99.90;;;;;;2603829;54;19934;31
2022/04/26 15:43:44;;;;;;;;;;;14.50;99.90;;;;;;2603354;54;19993;31
2022/04/26 15:46:39;;;;;;;;;;;14.50;99.90;;;;;;2603378;54;19935;31
2022/04/26 15:49:16;;;;;;;;;;;14.50;99.90;;;;;;2603578;54;19938;31
2022/04/26 15:51:56;;;;;;;;;;;14.50;99.90;;;;;;2702315;39;20939;31
2022/04/26 15:54:35;;;;;;;;;;;14.40;99.90;;;;;;2603331;54;19941;31
2022/04/26 15:59:45;;;;;;;;;;;14.40;99.90;;;;;;2603503;54;20741;31
2022/04/26 16:02:23;;;;;;;;;;;14.40;99.90;;;;;;2602928;54;20835;31
2022/04/26 16:05:01;;;;;;;;;;;14.40;99.90;;;;;;2603783;54;20002;31
2022/04/26 16:07:43;;;;;;;;;;;14.40;99.90;;;;;;2603901;46;19946;31
2022/04/26 16:21:30;;;;;;;;;;;14.20;99.90;;;;;;2603603;54;19938;31
2022/04/26 16:24:07;;;;;;;;;;;14.20;99.90;;;;;;2773724;31;21011;31
2022/04/26 16:26:45;;;;;;;;;;;14.20;99.90;;;;;;2603532;54;20763;31
2022/04/26 16:29:20;;;;;;;;;;;14.10;99.90;;;;;;2603469;54;20006;31
2022/04/26 16:31:54;;;;;;;;;;;14.10;99.90;;;;;;2603406;54;20775;31
2022/04/26 16:34:32;;;;;;;;;;;14.10;99.90;;;;;;2603443;54;19966;31
2022/04/26 16:39:44;;;;;;;;;;;14.00;99.90;;;;;;2621642;47;19990;31
2022/04/26 16:42:24;;;;;;;;;;;13.90;99.90;;;;;;2603173;54;19990;31
2022/04/26 16:45:00;;;;;;;;;;;13.80;99.90;;;;;;2602366;54;20017;31
2022/04/26 16:47:37;;;;;;;;;;;13.80;99.90;;;;;;2603258;54;19942;31
2022/04/26 16:50:13;;;;;;;;;;;13.80;99.90;;;;;;2603197;54;20002;31
2022/04/26 16:52:49;;;;;;;;;;;13.70;99.90;;;;;;2603349;54;19942;31
2022/04/26 16:55:26;;;;;;;;;;;13.60;99.90;;;;;;2622030;47;19942;31
2022/04/26 16:58:03;;;;;;;;;;;13.60;99.90;;;;;;2604369;54;19941;31
2022/04/26 17:00:45;;;;;;;;;;;13.60;99.90;;;;;;2603629;54;19986;31
2022/04/26 17:03:20;;;;;;;;;;;13.60;99.90;;;;;;2603507;54;19950;31
2022/04/26 17:05:56;;;;;;;;;;;13.60;99.90;;;;;;2621226;46;19950;31
2022/04/26 17:08:30;;;;;;;;;;;13.50;99.90;;;;;;2604049;54;19935;31
2022/04/26 17:13:53;;;;;;;;;;;13.40;99.90;;;;;;2604071;54;19934;31
2022/04/26 17:16:30;;;;;;;;;;;13.40;99.90;;;;;;2604228;54;19941;31
2022/04/26 17:19:10;;;;;;;;;;;13.50;99.90;;;;;;2622842;46;19942;31
2022/04/26 17:21:46;;;;;;;;;;;13.40;99.90;;;;;;2603993;54;20763;31
2022/04/26 17:27:12;;;;;;;;;;;13.30;99.90;;;;;;2603946;54;19946;31
2022/04/26 17:29:47;;;;;;;;;;;13.30;99.90;;;;;;2603994;54;19935;31
2022/04/26 17:32:25;;;;;;;;;;;13.30;99.90;;;;;;2622711;46;19942;31
2022/04/26 17:35:00;;;;;;;;;;;13.20;99.90;;;;;;2612597;46;19943;31
2022/04/26 17:37:37;;;;;;;;;;;13.20;99.90;;;;;;2603202;54;20787;31
2022/04/26 17:40:15;;;;;;;;;;;13.20;99.90;;;;;;2622830;46;19934;31
2022/04/26 17:42:49;;;;;;;;;;;13.20;99.90;;;;;;2604012;54;19934;31
2022/04/26 17:45:24;;;;;;;;;;;13.10;99.90;;;;;;2604154;54;19942;31
2022/04/26 17:48:02;;;;;;;;;;;13.10;99.90;;;;;;2603981;54;19941;31
2022/04/26 17:50:37;;;;;;;;;;;13.10;99.90;;;;;;2603969;54;20033;31
2022/04/26 17:58:49;;;;;;;;;;;12.90;99.90;;;;;;2622524;46;20727;31
2022/04/26 18:01:29;;;;;;;;;;;12.90;99.90;;;;;;2603937;54;19941;31
2022/04/26 18:04:09;;;;;;;;;;;12.90;99.90;;;;;;2702308;39;21210;31
2022/04/26 18:06:49;;;;;;;;;;;12.80;99.90;;;;;;2603886;54;19935;31
2022/04/26 18:09:34;;;;;;;;;;;12.80;99.90;;;;;;2604052;54;20708;31
2022/04/26 18:12:11;;;;;;;;;;;12.70;99.90;;;;;;2622564;46;19942;31
2022/04/26 18:14:47;;;;;;;;;;;12.60;99.90;;;;;;2603588;54;19997;31
2022/04/26 18:17:25;;;;;;;;;;;12.60;99.90;;;;;;2603022;54;19997;31
2022/04/26 18:20:21;;;;;;;;;;;12.60;99.90;;;;;;2602995;54;19935;31
2022/04/26 18:22:57;;;;;;;;;;;12.50;99.90;;;;;;2622291;46;20640;31
2022/04/26 18:28:22;;;;;;;;;;;12.20;99.90;;;;;;2603973;54;20753;31
2022/04/26 18:30:57;;;;;;;;;;;12.20;99.90;;;;;;2603086;54;20016;31
2022/04/26 18:33:31;;;;;;;;;;;12.10;99.90;;;;;;2603166;54;20792;31
2022/04/26 18:36:33;;;;;;;;;;;11.90;99.90;;;;;;2603036;54;20815;31
2022/04/26 18:39:15;;;;;;;;;;;11.90;99.90;;;;;;2622393;46;19942;31
2022/04/26 18:41:59;;;;;;;;;;;11.80;99.90;;;;;;2622164;46;20662;31
2022/04/26 18:44:40;;;;;;;;;;;11.70;99.90;;;;;;2702452;39;20924;31
2022/04/26 18:50:01;;;;;;;;;;;11.60;99.90;;;;;;2603137;54;20837;31
2022/04/26 18:52:41;;;;;;;;;;;11.60;99.90;;;;;;2618893;46;19950;31
2022/04/26 19:01:32;;;;;;;;;;;11.20;99.90;;;;;;2622252;46;19939;31
2022/04/26 19:04:07;;;;;;;;;;;11.10;99.90;;;;;;2603768;54;19993;31
2022/04/26 19:06:43;;;;;;;;;;;10.90;99.90;;;;;;2603724;54;19935;31
2022/04/26 19:09:19;;;;;;;;;;;10.80;99.90;;;;;;2603856;54;19941;31
2022/04/26 19:14:39;;;;;;;;;;;10.70;99.90;;;;;;2721153;39;20947;31
2022/04/26 19:17:20;;;;;;;;;;;10.50;99.90;;;;;;2603934;54;20652;31
2022/04/26 19:19:54;;;;;;;;;;;10.50;99.90;;;;;;2603994;54;19942;31
2022/04/26 19:22:30;;;;;;;;;;;10.40;99.90;;;;;;2622508;46;20002;31
2022/04/26 19:25:05;;;;;;;;;;;10.40;99.90;;;;;;2622189;46;19934;31
2022/04/26 19:27:40;;;;;;;;;;;10.40;99.90;;;;;;2603879;54;19941;31
2022/04/26 19:30:15;;;;;;;;;;;10.30;99.90;;;;;;2603789;54;19939;31
2022/04/26 19:32:53;;;;;;;;;;;10.20;99.90;;;;;;2603592;54;19969;31
2022/04/26 19:35:28;;;;;;;;;;;10.20;99.90;;;;;;2611528;46;19943;31
2022/04/26 19:38:03;;;;;;;;;;;10.20;99.90;;;;;;2602627;54;19943;31
2022/04/26 19:40:39;;;;;;;;;;;10.20;99.90;;;;;;2621974;46;19951;31
2022/04/26 19:43:14;;;;;;;;;;;10.20;99.90;;;;;;2603326;54;20660;31
2022/04/26 19:45:49;;;;;;;;;;;10.20;99.90;;;;;;2622286;46;20015;31
2022/04/26 19:48:35;;;;;;;;;;;10.20;99.90;;;;;;2603645;54;19965;31
2022/04/26 19:54:05;;;;;;;;;;;10.10;99.90;;;;;;2603816;54;20802;31
2022/04/26 19:56:44;;;;;;;;;;;10.10;99.90;;;;;;2603582;54;19943;31
2022/04/26 19:59:18;;;;;;;;;;;10.00;99.90;;;;;;2603126;54;19934;31
2022/04/26 20:02:14;;;;;;;;;;;9.90;99.90;;;;;;2603748;54;19934;31
2022/04/26 20:04:53;;;;;;;;;;;9.80;99.90;;;;;;2603418;54;19961;31
2022/04/26 20:07:29;;;;;;;;;;;9.80;99.90;;;;;;2603302;54;20816;31
2022/04/26 20:10:04;;;;;;;;;;;9.70;99.90;;;;;;2603520;54;19942;31
2022/04/26 20:12:39;;;;;;;;;;;9.70;99.90;;;;;;2603616;54;19941;31
2022/04/26 20:15:15;;;;;;;;;;;9.60;99.90;;;;;;2720926;39;21168;31
2022/04/26 20:17:51;;;;;;;;;;;9.60;99.90;;;;;;2603029;54;20048;31
2022/04/26 20:20:29;;;;;;;;;;;9.50;99.90;;;;;;2603786;54;19946;31
2022/04/26 20:23:04;;;;;;;;;;;9.40;99.90;;;;;;2622055;47;20671;31
2022/04/26 20:31:11;;;;;;;;;;;9.10;99.90;;;;;;2604139;54;20740;31
2022/04/26 20:33:54;;;;;;;;;;;9.10;99.90;;;;;;2623149;46;19972;31
2022/04/26 20:36:35;;;;;;;;;;;9.00;99.90;;;;;;2604103;54;19942;31
2022/04/26 20:39:14;;;;;;;;;;;9.00;99.90;;;;;;2774582;31;21014;31
2022/04/26 20:41:49;;;;;;;;;;;9.00;99.90;;;;;;2611598;46;19948;31
2022/04/26 20:44:25;;;;;;;;;;;8.90;99.90;;;;;;2622629;46;19941;31
2022/04/26 20:47:00;;;;;;;;;;;8.90;99.90;;;;;;2604291;54;19934;31
2022/04/26 20:49:35;;;;;;;;;;;8.90;99.90;;;;;;2604409;54;19935;31
2022/04/26 20:52:13;;;;;;;;;;;8.90;99.90;;;;;;2622678;46;19934;31
2022/04/26 20:54:48;;;;;;;;;;;8.90;99.90;;;;;;2603337;54;20803;31
2022/04/26 20:57:23;;;;;;;;;;;8.80;99.90;;;;;;2604082;54;19934;31
2022/04/26 21:00:04;;;;;;;;;;;9.10;99.90;;;;;;2617588;46;20786;31
2022/04/26 21:02:41;;;;;;;;;;;8.70;99.90;;;;;;2603261;54;20693;31
2022/04/26 21:05:16;;;;;;;;;;;8.60;99.90;;;;;;2603345;54;19935;31
2022/04/26 21:07:56;;;;;;;;;;;9.20;99.90;;;;;;2604054;54;19935;31
2022/04/26 21:10:33;;;;;;;;;;;8.50;99.90;;;;;;2604214;54;19935;31
2022/04/26 21:15:56;;;;;;;;;;;9.10;99.90;;;;;;2603918;54;20887;31
2022/04/26 21:18:31;;;;;;;;;;;8.40;99.90;;;;;;2622712;46;19935;31
2022/04/26 21:21:07;;;;;;;;;;;8.40;99.90;;;;;;2604086;54;19993;31
2022/04/26 21:23:43;;;;;;;;;;;8.40;99.90;;;;;;2622681;46;19941;31
2022/04/26 21:26:22;;;;;;;;;;;8.30;99.90;;;;;;2604150;54;19935;31
2022/04/26 21:31:46;;;;;;;;;;;8.20;99.90;;;;;;2605956;46;19946;31
2022/04/26 21:34:23;;;;;;;;;;;8.20;99.90;;;;;;2604167;54;20757;31
2022/04/26 21:36:58;;;;;;;;;;;8.10;99.90;;;;;;2604118;54;19935;31
2022/04/26 21:39:34;;;;;;;;;;;8.10;99.90;;;;;;2604006;54;19954;31
2022/04/26 21:42:13;;;;;;;;;;;8.10;99.90;;;;;;2603802;54;19985;31
2022/04/26 21:44:50;;;;;;;;;;;8.00;99.90;;;;;;2604008;54;20796;31
2022/04/26 21:47:28;;;;;;;;;;;8.00;99.90;;;;;;2622484;46;19931;31
2022/04/26 21:52:53;;;;;;;;;;;7.90;99.90;;;;;;2622538;46;20804;31
2022/04/26 21:55:30;;;;;;;;;;;7.90;99.90;;;;;;2603945;54;20812;31
2022/04/26 21:58:08;;;;;;;;;;;7.80;99.90;;;;;;2603328;54;19997;31
2022/04/26 22:00:44;;;;;;;;;;;7.70;99.90;;;;;;2622407;46;20030;31